Time;durP1;ratioP1;P1;durP2;ratioP2;P2;SDS_P1;SDS_P2;PMS_P1;PMS_P2;Temp;Humidity;BMP_temperature;BMP_pressure;BME280_temperature;BME280_humidity;BME280_pressure;Samples;Min_cycle;Max_cycle;Signal;HPM_P1;HPM_P2
2023/12/06 00:01:10;;;;;;;23.57;18.77;;;;;;;;;;4978452;28;20258;-51
2023/12/06 00:03:37;;;;;;;24.27;18.87;;;;;;;;;;4974692;28;20435;-51
2023/12/06 00:06:03;;;;;;;22.63;18.80;;;;;;;;;;4974866;28;20227;-51
2023/12/06 00:08:29;;;;;;;22.43;17.67;;;;;;;;;;4974382;28;20430;-51
2023/12/06 00:10:57;;;;;;;21.40;16.87;;;;;;;;;;4974832;28;20470;-51
2023/12/06 00:13:23;;;;;;;22.87;17.67;;;;;;;;;;4974894;28;20434;-51
2023/12/06 00:15:49;;;;;;;23.03;18.47;;;;;;;;;;4974270;28;20504;-50
2023/12/06 00:18:15;;;;;;;19.87;16.90;;;;;;;;;;4971181;28;20265;-49
2023/12/06 00:20:43;;;;;;;21.37;17.23;;;;;;;;;;4974739;28;20665;-49
2023/12/06 00:23:09;;;;;;;25.03;18.07;;;;;;;;;;4974578;28;20222;-50
2023/12/06 00:25:35;;;;;;;24.07;17.47;;;;;;;;;;4974366;28;20528;-50
2023/12/06 00:28:03;;;;;;;22.50;17.40;;;;;;;;;;4974264;28;20720;-50
2023/12/06 00:30:29;;;;;;;22.70;16.90;;;;;;;;;;4974475;28;20209;-50
2023/12/06 00:32:55;;;;;;;22.87;16.10;;;;;;;;;;4974424;28;20442;-49
2023/12/06 00:35:21;;;;;;;23.07;17.37;;;;;;;;;;4974382;28;20234;-49
2023/12/06 00:37:49;;;;;;;21.40;16.33;;;;;;;;;;4973639;28;20234;-49
2023/12/06 00:40:15;;;;;;;21.50;16.10;;;;;;;;;;4974182;28;20577;-49
2023/12/06 00:42:41;;;;;;;24.10;16.30;;;;;;;;;;4974277;28;20434;-49
2023/12/06 00:45:07;;;;;;;20.03;15.50;;;;;;;;;;4974230;28;20562;-49
2023/12/06 00:47:33;;;;;;;24.83;17.13;;;;;;;;;;4974110;28;20198;-49
2023/12/06 00:49:59;;;;;;;20.70;15.77;;;;;;;;;;4974207;28;20438;-50
2023/12/06 00:52:25;;;;;;;25.37;17.40;;;;;;;;;;4974227;28;20210;-49
2023/12/06 00:54:52;;;;;;;27.30;20.13;;;;;;;;;;4973924;28;20200;-49
2023/12/06 00:57:18;;;;;;;28.50;19.73;;;;;;;;;;4973829;28;20599;-49
2023/12/06 00:59:44;;;;;;;26.60;18.53;;;;;;;;;;4973848;28;20493;-50
2023/12/06 01:02:10;;;;;;;28.70;20.37;;;;;;;;;;4974030;28;20207;-49
2023/12/06 01:04:37;;;;;;;29.07;19.77;;;;;;;;;;4973695;28;20211;-50
2023/12/06 01:07:03;;;;;;;29.77;21.47;;;;;;;;;;4973781;28;20269;-50
2023/12/06 01:09:29;;;;;;;27.10;20.03;;;;;;;;;;4973733;28;20450;-50
2023/12/06 01:11:56;;;;;;;29.63;20.00;;;;;;;;;;4973815;28;20446;-50
2023/12/06 01:14:22;;;;;;;30.57;20.93;;;;;;;;;;4973580;28;20293;-50
2023/12/06 01:16:48;;;;;;;30.00;19.77;;;;;;;;;;4973549;28;20869;-50
2023/12/06 01:19:16;;;;;;;41.67;22.53;;;;;;;;;;4973588;28;20529;-49
2023/12/06 01:21:42;;;;;;;33.60;23.13;;;;;;;;;;4973428;28;20674;-49
2023/12/06 01:24:08;;;;;;;33.67;21.43;;;;;;;;;;4973400;28;20431;-49
2023/12/06 01:26:34;;;;;;;34.83;22.73;;;;;;;;;;4973344;28;20243;-50
2023/12/06 01:29:04;;;;;;;35.00;22.20;;;;;;;;;;4973255;28;20794;-49
2023/12/06 01:31:30;;;;;;;40.33;23.23;;;;;;;;;;4973436;28;20258;-50
2023/12/06 01:33:56;;;;;;;36.07;21.73;;;;;;;;;;4973372;28;20442;-49
2023/12/06 01:36:22;;;;;;;37.83;22.50;;;;;;;;;;4973452;28;20452;-50
2023/12/06 01:38:48;;;;;;;35.67;22.63;;;;;;;;;;4973121;28;20195;-50
2023/12/06 01:41:14;;;;;;;33.50;20.97;;;;;;;;;;4973135;28;20917;-49
2023/12/06 01:43:42;;;;;;;34.60;22.10;;;;;;;;;;4973161;28;20438;-49
2023/12/06 01:46:10;;;;;;;38.87;22.00;;;;;;;;;;4973239;28;20231;-50
2023/12/06 01:48:36;;;;;;;39.63;22.10;;;;;;;;;;4972920;28;20464;-49
2023/12/06 01:51:02;;;;;;;35.67;21.60;;;;;;;;;;4972888;28;20944;-50
2023/12/06 01:53:28;;;;;;;36.13;22.97;;;;;;;;;;4973085;28;20473;-50
2023/12/06 01:55:54;;;;;;;33.87;20.67;;;;;;;;;;4973031;28;20806;-49
2023/12/06 01:58:20;;;;;;;34.20;20.60;;;;;;;;;;4972861;28;20443;-50
2023/12/06 02:00:47;;;;;;;30.93;19.43;;;;;;;;;;4972733;28;20470;-50
2023/12/06 02:03:15;;;;;;;30.93;18.87;;;;;;;;;;4972787;28;21011;-50
2023/12/06 02:05:41;;;;;;;30.00;18.80;;;;;;;;;;4972968;28;20486;-50
2023/12/06 02:08:06;;;;;;;28.07;17.40;;;;;;;;;;4972939;28;20448;-49
2023/12/06 02:10:33;;;;;;;27.27;17.03;;;;;;;;;;4972738;28;20210;-50
2023/12/06 02:12:59;;;;;;;28.20;17.00;;;;;;;;;;4972582;28;20199;-49
2023/12/06 02:15:25;;;;;;;26.00;16.53;;;;;;;;;;4972793;28;20427;-49
2023/12/06 02:17:51;;;;;;;25.90;16.23;;;;;;;;;;4972550;28;20477;-49
2023/12/06 02:20:19;;;;;;;21.53;14.70;;;;;;;;;;4972659;28;20814;-50
2023/12/06 02:22:45;;;;;;;22.60;15.07;;;;;;;;;;4972362;28;20543;-50
2023/12/06 02:25:13;;;;;;;22.70;14.80;;;;;;;;;;4972649;28;20609;-49
2023/12/06 02:27:40;;;;;;;18.93;13.53;;;;;;;;;;4972345;28;20258;-50
2023/12/06 02:30:07;;;;;;;21.13;13.67;;;;;;;;;;4972582;28;20446;-50
2023/12/06 02:32:33;;;;;;;19.73;13.90;;;;;;;;;;4972443;28;20461;-50
2023/12/06 02:35:00;;;;;;;24.03;14.33;;;;;;;;;;4972624;28;20435;-49
2023/12/06 02:37:26;;;;;;;19.83;13.80;;;;;;;;;;4972591;28;20666;-50
2023/12/06 02:39:53;;;;;;;21.33;13.33;;;;;;;;;;4972389;28;20446;-50
2023/12/06 02:42:20;;;;;;;17.33;12.73;;;;;;;;;;4972390;28;20752;-50
2023/12/06 02:44:46;;;;;;;19.97;14.57;;;;;;;;;;4972135;28;20477;-50
2023/12/06 02:47:12;;;;;;;17.33;12.73;;;;;;;;;;4972455;28;20442;-50
2023/12/06 02:49:38;;;;;;;20.63;14.23;;;;;;;;;;4972457;28;20199;-50
2023/12/06 02:52:04;;;;;;;21.83;13.53;;;;;;;;;;4972571;28;20430;-50
2023/12/06 02:54:30;;;;;;;17.40;14.00;;;;;;;;;;4972282;28;20435;-50
2023/12/06 02:56:56;;;;;;;17.47;13.20;;;;;;;;;;4972300;28;20449;-50
2023/12/06 02:59:24;;;;;;;19.17;13.90;;;;;;;;;;4972421;28;20571;-50
2023/12/06 03:01:50;;;;;;;19.47;13.37;;;;;;;;;;4974526;28;20669;-50
2023/12/06 03:04:16;;;;;;;17.57;12.87;;;;;;;;;;4975884;28;20442;-50
2023/12/06 03:06:42;;;;;;;19.53;13.53;;;;;;;;;;4976011;28;20442;-49
2023/12/06 03:09:08;;;;;;;16.63;12.70;;;;;;;;;;4976273;28;20298;-49
2023/12/06 03:11:34;;;;;;;15.83;11.53;;;;;;;;;;4975948;28;20225;-49
2023/12/06 03:14:00;;;;;;;16.57;12.07;;;;;;;;;;4975747;28;20599;-49
2023/12/06 03:16:27;;;;;;;16.73;12.60;;;;;;;;;;4976031;28;20434;-49
2023/12/06 03:18:53;;;;;;;16.50;13.40;;;;;;;;;;4975800;28;20210;-49
2023/12/06 03:21:19;;;;;;;17.90;14.43;;;;;;;;;;4975769;28;20526;-50
2023/12/06 03:23:45;;;;;;;16.40;12.73;;;;;;;;;;4975517;28;20541;-49
2023/12/06 03:26:11;;;;;;;16.57;12.97;;;;;;;;;;4975517;28;20720;-50
2023/12/06 03:28:37;;;;;;;17.17;12.57;;;;;;;;;;4975610;28;20310;-50
2023/12/06 03:31:04;;;;;;;16.57;13.20;;;;;;;;;;4975467;28;20634;-49
2023/12/06 03:33:31;;;;;;;16.93;12.57;;;;;;;;;;4975412;28;20843;-50
2023/12/06 03:35:57;;;;;;;20.27;13.17;;;;;;;;;;4975555;28;20921;-49
2023/12/06 03:38:23;;;;;;;16.47;13.33;;;;;;;;;;4975560;28;20481;-50
2023/12/06 03:40:49;;;;;;;15.47;12.07;;;;;;;;;;4975456;28;20586;-50
2023/12/06 03:43:15;;;;;;;17.20;12.30;;;;;;;;;;4975342;28;20214;-49
2023/12/06 03:45:41;;;;;;;16.60;11.77;;;;;;;;;;4975280;28;20474;-49
2023/12/06 03:48:07;;;;;;;16.63;12.70;;;;;;;;;;4975269;28;20932;-49
2023/12/06 03:50:34;;;;;;;15.40;12.20;;;;;;;;;;4975225;28;20225;-49
2023/12/06 03:53:00;;;;;;;15.63;11.40;;;;;;;;;;4975033;28;20454;-50
2023/12/06 03:55:26;;;;;;;14.03;11.47;;;;;;;;;;4975263;28;20450;-49
2023/12/06 03:57:52;;;;;;;15.77;11.90;;;;;;;;;;4975025;28;20234;-50
2023/12/06 04:00:18;;;;;;;14.57;11.23;;;;;;;;;;4975091;28;20294;-49
2023/12/06 04:02:44;;;;;;;15.30;11.40;;;;;;;;;;4974863;28;20209;-50
2023/12/06 04:05:10;;;;;;;14.43;11.20;;;;;;;;;;4975287;28;20218;-49
2023/12/06 04:07:37;;;;;;;14.70;11.73;;;;;;;;;;4974738;28;20616;-49
2023/12/06 04:10:04;;;;;;;14.53;11.63;;;;;;;;;;4975008;28;20435;-49
2023/12/06 04:12:30;;;;;;;16.77;11.77;;;;;;;;;;4973490;28;20816;-49
2023/12/06 04:14:56;;;;;;;16.73;11.40;;;;;;;;;;4974763;28;20431;-50
2023/12/06 04:17:22;;;;;;;15.70;11.70;;;;;;;;;;4974768;28;20203;-49
2023/12/06 04:19:48;;;;;;;17.03;11.67;;;;;;;;;;4974634;28;20222;-49
2023/12/06 04:22:14;;;;;;;15.03;11.90;;;;;;;;;;4974577;28;20231;-49
2023/12/06 04:24:41;;;;;;;15.47;11.87;;;;;;;;;;4975122;28;20230;-49
2023/12/06 04:27:07;;;;;;;17.83;11.80;;;;;;;;;;4974619;28;20250;-49
2023/12/06 04:29:33;;;;;;;16.00;12.13;;;;;;;;;;4974378;28;20446;-49
2023/12/06 04:31:59;;;;;;;17.60;12.20;;;;;;;;;;4974460;28;20206;-50
2023/12/06 04:34:25;;;;;;;17.90;12.67;;;;;;;;;;4974575;28;20542;-50
2023/12/06 04:36:51;;;;;;;16.87;12.30;;;;;;;;;;4974237;28;20199;-50
2023/12/06 04:39:17;;;;;;;15.03;11.43;;;;;;;;;;4974295;28;20688;-50
2023/12/06 04:41:45;;;;;;;15.97;11.50;;;;;;;;;;4974223;28;20434;-50
2023/12/06 04:44:11;;;;;;;17.43;12.17;;;;;;;;;;4974332;28;20226;-50
2023/12/06 04:46:37;;;;;;;18.57;12.70;;;;;;;;;;4974250;28;20486;-50
2023/12/06 04:49:03;;;;;;;18.57;12.13;;;;;;;;;;4974176;28;20257;-49
2023/12/06 04:51:29;;;;;;;16.80;12.23;;;;;;;;;;4974045;28;20653;-49
2023/12/06 04:53:55;;;;;;;15.63;12.07;;;;;;;;;;4973994;28;20214;-49
2023/12/06 04:56:21;;;;;;;17.13;11.93;;;;;;;;;;4974006;28;20194;-50
2023/12/06 04:58:48;;;;;;;18.53;13.13;;;;;;;;;;4973775;28;20449;-50
2023/12/06 05:01:14;;;;;;;16.33;12.23;;;;;;;;;;4974044;28;20232;-50
2023/12/06 05:03:40;;;;;;;17.70;12.33;;;;;;;;;;4973925;28;20445;-49
2023/12/06 05:06:06;;;;;;;13.60;11.80;;;;;;;;;;4973748;28;20223;-50
2023/12/06 05:08:32;;;;;;;16.10;12.40;;;;;;;;;;4973749;28;20430;-49
2023/12/06 05:10:58;;;;;;;18.57;12.63;;;;;;;;;;4973639;28;20807;-50
2023/12/06 05:13:24;;;;;;;17.90;13.23;;;;;;;;;;4973625;28;20206;-49
2023/12/06 05:15:52;;;;;;;21.27;12.57;;;;;;;;;;4973759;28;20598;-50
2023/12/06 05:18:17;;;;;;;17.73;12.77;;;;;;;;;;4973586;28;20228;-50
2023/12/06 05:20:43;;;;;;;15.63;12.17;;;;;;;;;;4973750;28;20442;-49
2023/12/06 05:23:09;;;;;;;18.33;12.27;;;;;;;;;;4973244;28;20721;-49
2023/12/06 05:25:35;;;;;;;17.47;12.97;;;;;;;;;;4973413;28;20262;-50
2023/12/06 05:28:01;;;;;;;17.40;12.57;;;;;;;;;;4973219;28;20716;-50
2023/12/06 05:30:27;;;;;;;18.03;13.97;;;;;;;;;;4973479;28;20191;-50
2023/12/06 05:32:55;;;;;;;18.93;14.43;;;;;;;;;;4973311;28;20199;-50
2023/12/06 05:35:21;;;;;;;17.57;13.90;;;;;;;;;;4973509;28;20435;-50
2023/12/06 05:37:47;;;;;;;20.00;13.80;;;;;;;;;;4973402;28;20439;-49
2023/12/06 05:40:13;;;;;;;21.40;13.73;;;;;;;;;;4973514;28;20350;-49
2023/12/06 05:42:39;;;;;;;20.97;15.27;;;;;;;;;;4973255;28;20219;-49
2023/12/06 05:45:06;;;;;;;20.77;15.03;;;;;;;;;;4973131;28;20482;-50
2023/12/06 05:47:32;;;;;;;19.57;15.33;;;;;;;;;;4973098;28;20685;-49
2023/12/06 05:49:59;;;;;;;20.03;15.80;;;;;;;;;;4972998;28;20446;-49
2023/12/06 05:52:25;;;;;;;18.53;14.40;;;;;;;;;;4973406;28;20214;-49
2023/12/06 05:54:51;;;;;;;18.90;15.87;;;;;;;;;;4972997;28;20435;-49
2023/12/06 05:57:17;;;;;;;16.57;14.00;;;;;;;;;;4973066;28;20434;-49
2023/12/06 05:59:43;;;;;;;19.90;15.00;;;;;;;;;;4972905;28;20822;-49
2023/12/06 06:02:09;;;;;;;19.27;14.43;;;;;;;;;;4972914;28;20202;-49
2023/12/06 06:04:35;;;;;;;19.43;15.23;;;;;;;;;;4972813;28;20282;-49
2023/12/06 06:07:02;;;;;;;19.23;14.90;;;;;;;;;;4972703;28;20661;-49
2023/12/06 06:09:28;;;;;;;17.33;13.83;;;;;;;;;;4972816;28;20203;-49
2023/12/06 06:11:54;;;;;;;19.37;15.73;;;;;;;;;;4972709;28;20513;-49
2023/12/06 06:14:20;;;;;;;20.17;16.40;;;;;;;;;;4972602;28;20199;-49
2023/12/06 06:16:46;;;;;;;20.60;15.93;;;;;;;;;;4972323;28;20665;-49
2023/12/06 06:19:12;;;;;;;22.90;17.07;;;;;;;;;;4972561;28;20258;-49
2023/12/06 06:21:38;;;;;;;23.47;16.33;;;;;;;;;;4972380;28;20195;-50
2023/12/06 06:24:06;;;;;;;21.57;16.20;;;;;;;;;;4972527;28;20450;-49
2023/12/06 06:26:32;;;;;;;20.10;16.27;;;;;;;;;;4972330;28;20247;-49
2023/12/06 06:28:58;;;;;;;24.37;19.63;;;;;;;;;;4972274;28;20802;-50
2023/12/06 06:31:24;;;;;;;27.07;19.40;;;;;;;;;;4972512;28;20441;-49
2023/12/06 06:33:50;;;;;;;21.67;17.57;;;;;;;;;;4972274;28;20289;-49
2023/12/06 06:36:16;;;;;;;24.00;18.47;;;;;;;;;;4975042;28;20521;-50
2023/12/06 06:38:43;;;;;;;22.10;17.90;;;;;;;;;;4976320;28;20693;-50
2023/12/06 06:41:10;;;;;;;20.83;17.50;;;;;;;;;;4976516;28;20207;-50
2023/12/06 06:43:36;;;;;;;22.13;16.87;;;;;;;;;;4976231;28;20788;-51
2023/12/06 06:46:03;;;;;;;22.77;17.67;;;;;;;;;;4976064;28;21047;-50
2023/12/06 06:48:29;;;;;;;22.57;18.40;;;;;;;;;;4976252;28;20453;-50
2023/12/06 06:50:55;;;;;;;22.27;17.97;;;;;;;;;;4976147;28;20485;-51
2023/12/06 06:53:21;;;;;;;21.27;17.13;;;;;;;;;;4976026;28;20198;-50
2023/12/06 06:55:47;;;;;;;22.97;18.03;;;;;;;;;;4975920;28;20435;-50
2023/12/06 06:58:14;;;;;;;24.50;19.17;;;;;;;;;;4976166;28;20199;-50
2023/12/06 07:00:41;;;;;;;22.30;18.53;;;;;;;;;;4976235;28;20446;-51
2023/12/06 07:03:07;;;;;;;25.67;20.10;;;;;;;;;;4975885;28;20457;-50
2023/12/06 07:05:33;;;;;;;25.30;20.33;;;;;;;;;;4975979;28;20477;-51
2023/12/06 07:08:00;;;;;;;26.00;20.17;;;;;;;;;;4975731;28;20442;-51
2023/12/06 07:10:26;;;;;;;28.50;20.93;;;;;;;;;;4976032;28;20462;-50
2023/12/06 07:12:52;;;;;;;31.53;23.60;;;;;;;;;;4975767;28;20434;-50
2023/12/06 07:15:20;;;;;;;26.10;19.87;;;;;;;;;;4975656;28;20442;-50
2023/12/06 07:17:46;;;;;;;25.30;20.13;;;;;;;;;;4975555;28;21161;-50
2023/12/06 07:20:12;;;;;;;25.53;20.70;;;;;;;;;;4975660;28;20445;-50
2023/12/06 07:22:38;;;;;;;50.93;32.50;;;;;;;;;;4975628;28;20456;-50
2023/12/06 07:25:05;;;;;;;28.73;22.50;;;;;;;;;;4975764;28;20469;-50
2023/12/06 07:27:31;;;;;;;23.77;20.00;;;;;;;;;;4975281;28;20885;-50
2023/12/06 07:29:57;;;;;;;26.50;19.83;;;;;;;;;;4975648;28;20477;-50
2023/12/06 07:32:24;;;;;;;24.33;19.70;;;;;;;;;;4975779;28;20462;-51
2023/12/06 07:34:50;;;;;;;26.70;22.87;;;;;;;;;;4975229;28;20218;-50
2023/12/06 07:37:19;;;;;;;25.10;20.53;;;;;;;;;;4974495;28;20438;-50
2023/12/06 07:39:45;;;;;;;27.40;21.67;;;;;;;;;;4974613;28;20283;-51
2023/12/06 07:42:11;;;;;;;27.43;21.80;;;;;;;;;;4975470;28;20979;-50
2023/12/06 07:44:37;;;;;;;27.23;21.50;;;;;;;;;;4975235;28;20254;-51
2023/12/06 07:47:03;;;;;;;27.63;22.60;;;;;;;;;;4975023;28;20441;-50
2023/12/06 07:49:30;;;;;;;32.30;24.03;;;;;;;;;;4974921;28;20214;-50
2023/12/06 07:51:56;;;;;;;28.00;22.17;;;;;;;;;;4974382;28;20458;-50
2023/12/06 07:54:22;;;;;;;26.80;21.80;;;;;;;;;;4975269;28;20442;-49
2023/12/06 07:56:48;;;;;;;27.77;22.00;;;;;;;;;;4975160;28;20438;-50
2023/12/06 07:59:14;;;;;;;31.37;23.57;;;;;;;;;;4975062;28;20203;-51
2023/12/06 08:01:43;;;;;;;29.97;23.10;;;;;;;;;;4975210;28;20484;-51
2023/12/06 08:04:09;;;;;;;29.57;23.83;;;;;;;;;;4974602;28;20226;-50
2023/12/06 08:06:36;;;;;;;28.90;23.50;;;;;;;;;;4974897;28;21071;-50
2023/12/06 08:09:10;;;;;;;30.20;22.33;;;;;;;;;;4974812;28;20665;-50
2023/12/06 08:11:36;;;;;;;28.03;22.00;;;;;;;;;;4974670;28;20508;-50
2023/12/06 08:14:02;;;;;;;31.53;24.37;;;;;;;;;;4974675;28;20443;-50
2023/12/06 08:16:28;;;;;;;30.13;24.03;;;;;;;;;;4974712;28;20732;-50
2023/12/06 08:18:54;;;;;;;32.57;24.90;;;;;;;;;;4974719;28;20438;-49
2023/12/06 08:21:20;;;;;;;33.27;25.77;;;;;;;;;;4974356;28;20617;-50
2023/12/06 08:23:48;;;;;;;33.00;24.60;;;;;;;;;;4974621;28;20230;-48
2023/12/06 08:26:14;;;;;;;34.10;25.60;;;;;;;;;;4974319;28;20230;-49
2023/12/06 08:28:40;;;;;;;36.67;27.40;;;;;;;;;;4974642;28;20457;-47
2023/12/06 08:31:08;;;;;;;33.87;25.57;;;;;;;;;;4973045;28;20443;-48
2023/12/06 08:33:34;;;;;;;36.27;26.73;;;;;;;;;;4974353;28;21213;-49
2023/12/06 08:36:00;;;;;;;35.70;25.67;;;;;;;;;;4974184;28;20948;-49
2023/12/06 08:38:26;;;;;;;32.77;25.73;;;;;;;;;;4974962;28;20596;-49
2023/12/06 08:40:53;;;;;;;33.63;26.17;;;;;;;;;;4974401;28;20199;-49
2023/12/06 08:43:19;;;;;;;37.67;27.53;;;;;;;;;;4974154;28;20443;-49
2023/12/06 08:45:45;;;;;;;35.73;26.60;;;;;;;;;;4974321;28;20477;-49
2023/12/06 08:48:11;;;;;;;34.77;26.10;;;;;;;;;;4974279;28;20609;-49
2023/12/06 08:50:37;;;;;;;34.07;25.10;;;;;;;;;;4974508;28;20203;-49
2023/12/06 08:53:04;;;;;;;33.07;25.63;;;;;;;;;;4974221;28;20897;-49
2023/12/06 08:55:30;;;;;;;34.97;27.47;;;;;;;;;;4974136;28;20801;-49
2023/12/06 08:57:57;;;;;;;35.83;26.63;;;;;;;;;;4973593;28;20444;-49
2023/12/06 09:00:23;;;;;;;34.57;26.67;;;;;;;;;;4974439;28;20446;-49
2023/12/06 09:02:49;;;;;;;35.27;26.33;;;;;;;;;;4974104;28;20441;-49
2023/12/06 09:05:16;;;;;;;34.93;26.33;;;;;;;;;;4974214;28;20558;-49
2023/12/06 09:07:42;;;;;;;34.23;25.40;;;;;;;;;;4974232;28;20449;-49
2023/12/06 09:10:09;;;;;;;37.17;26.73;;;;;;;;;;4974263;28;20785;-49
2023/12/06 09:12:35;;;;;;;35.73;25.23;;;;;;;;;;4986446;28;20520;-50
2023/12/06 09:15:04;;;;;;;35.30;26.07;;;;;;;;;;4993075;28;20533;-49
2023/12/06 09:17:30;;;;;;;36.23;26.53;;;;;;;;;;4993141;28;20191;-49
2023/12/06 09:19:56;;;;;;;36.53;26.90;;;;;;;;;;4993058;28;20459;-49
2023/12/06 09:22:22;;;;;;;34.30;26.67;;;;;;;;;;4993247;28;20465;-49
2023/12/06 09:24:48;;;;;;;36.23;26.47;;;;;;;;;;4993395;28;20202;-49
2023/12/06 09:27:15;;;;;;;33.30;26.10;;;;;;;;;;4993663;28;20484;-55
2023/12/06 09:29:45;;;;;;;32.17;25.37;;;;;;;;;;4993131;28;20465;-51
2023/12/06 09:32:12;;;;;;;35.60;25.70;;;;;;;;;;4993076;28;20445;-50
2023/12/06 09:34:38;;;;;;;36.50;27.77;;;;;;;;;;4993169;28;20449;-50
2023/12/06 09:37:04;;;;;;;34.83;26.23;;;;;;;;;;4989803;28;20851;-50
2023/12/06 09:39:30;;;;;;;36.50;27.13;;;;;;;;;;4992401;28;20210;-50
2023/12/06 09:41:56;;;;;;;35.60;26.07;;;;;;;;;;4992345;28;20204;-51
2023/12/06 09:44:22;;;;;;;37.60;27.83;;;;;;;;;;4992329;28;20202;-51
2023/12/06 09:46:48;;;;;;;35.53;26.70;;;;;;;;;;4992310;28;20222;-51
2023/12/06 09:49:16;;;;;;;35.47;27.40;;;;;;;;;;4992146;28;20507;-51
2023/12/06 09:51:42;;;;;;;36.77;27.13;;;;;;;;;;4992320;28;20998;-51
2023/12/06 09:54:08;;;;;;;34.53;26.87;;;;;;;;;;4992373;28;20484;-51
2023/12/06 09:56:35;;;;;;;35.97;26.90;;;;;;;;;;4992220;28;20473;-51
2023/12/06 09:59:02;;;;;;;35.63;26.23;;;;;;;;;;4992110;28;20210;-51
2023/12/06 10:01:28;;;;;;;35.00;27.17;;;;;;;;;;4992090;28;20811;-50
2023/12/06 10:03:54;;;;;;;36.17;26.87;;;;;;;;;;4992160;28;20501;-50
2023/12/06 10:06:21;;;;;;;34.47;26.13;;;;;;;;;;4992070;28;20819;-50
2023/12/06 10:08:52;;;;;;;34.40;26.60;;;;;;;;;;4991939;28;20445;-50
2023/12/06 10:11:22;;;;;;;36.97;27.60;;;;;;;;;;4992071;28;20468;-50
2023/12/06 10:13:48;;;;;;;38.23;27.53;;;;;;;;;;4991989;28;20440;-50
2023/12/06 10:16:15;;;;;;;36.97;26.87;;;;;;;;;;4991811;28;20434;-51
2023/12/06 10:18:41;;;;;;;36.33;27.57;;;;;;;;;;4991891;28;20433;-50
2023/12/06 10:21:08;;;;;;;34.97;25.60;;;;;;;;;;4991840;28;20823;-51
2023/12/06 10:23:36;;;;;;;34.33;27.03;;;;;;;;;;4991850;28;20491;-51
2023/12/06 10:26:03;;;;;;;34.10;25.23;;;;;;;;;;4991535;28;20564;-50
2023/12/06 10:28:29;;;;;;;34.90;26.27;;;;;;;;;;4991606;28;20826;-50
2023/12/06 10:30:59;;;;;;;36.83;26.60;;;;;;;;;;4991826;28;20430;-50
2023/12/06 10:33:26;;;;;;;34.57;25.73;;;;;;;;;;4991846;28;20202;-51
2023/12/06 10:35:53;;;;;;;36.07;26.17;;;;;;;;;;4991672;28;20440;-50
2023/12/06 10:38:20;;;;;;;36.07;26.40;;;;;;;;;;4991637;28;20447;-50
2023/12/06 10:40:47;;;;;;;34.30;26.27;;;;;;;;;;4991615;28;20445;-51
2023/12/06 10:43:14;;;;;;;35.30;25.80;;;;;;;;;;4991743;28;21002;-50
2023/12/06 10:45:41;;;;;;;33.83;25.67;;;;;;;;;;4991795;28;20481;-51
2023/12/06 10:48:07;;;;;;;34.13;25.70;;;;;;;;;;4991731;28;20440;-51
2023/12/06 10:50:34;;;;;;;33.20;25.37;;;;;;;;;;4991602;28;20896;-50
2023/12/06 10:53:01;;;;;;;34.67;26.57;;;;;;;;;;4991189;28;20437;-50
2023/12/06 10:55:29;;;;;;;34.10;24.97;;;;;;;;;;4991815;28;20453;-51
2023/12/06 10:57:57;;;;;;;37.67;27.23;;;;;;;;;;4990327;28;20931;-51
2023/12/06 11:00:24;;;;;;;35.07;25.43;;;;;;;;;;4991675;28;20535;-51
2023/12/06 11:02:50;;;;;;;32.13;25.00;;;;;;;;;;4991353;28;20512;-51
2023/12/06 11:05:18;;;;;;;34.47;26.50;;;;;;;;;;4991153;28;20580;-51
2023/12/06 11:07:51;;;;;;;32.37;25.27;;;;;;;;;;4991442;28;20198;-51
2023/12/06 11:10:20;;;;;;;34.73;25.93;;;;;;;;;;4991516;28;20458;-51
2023/12/06 11:12:53;;;;;;;31.63;25.03;;;;;;;;;;4991252;28;20449;-51
2023/12/06 11:15:24;;;;;;;32.57;25.77;;;;;;;;;;4991457;28;20485;-51
2023/12/06 11:17:54;;;;;;;33.07;25.47;;;;;;;;;;4991215;28;20977;-52
2023/12/06 11:20:20;;;;;;;33.30;24.90;;;;;;;;;;4991214;28;21014;-51
2023/12/06 11:22:46;;;;;;;34.27;26.30;;;;;;;;;;4994392;28;20551;-51
2023/12/06 11:25:14;;;;;;;32.43;24.57;;;;;;;;;;4994870;28;20565;-50
2023/12/06 11:27:40;;;;;;;32.40;24.13;;;;;;;;;;4995094;28;20485;-51
2023/12/06 11:30:09;;;;;;;36.80;26.87;;;;;;;;;;4994748;28;20449;-51
2023/12/06 11:32:43;;;;;;;32.70;25.87;;;;;;;;;;4994776;28;20445;-49
2023/12/06 11:35:09;;;;;;;31.30;24.80;;;;;;;;;;4995143;28;20445;-51
2023/12/06 11:37:35;;;;;;;32.77;24.67;;;;;;;;;;4995087;28;20496;-50
2023/12/06 11:40:22;;;;;;;30.97;24.57;;;;;;;;;;4994966;28;20532;-51
2023/12/06 11:42:53;;;;;;;28.97;23.00;;;;;;;;;;4989950;28;20507;-52
2023/12/06 11:45:25;;;;;;;31.00;23.70;;;;;;;;;;4994921;28;20485;-52
2023/12/06 11:47:53;;;;;;;29.33;24.30;;;;;;;;;;4994949;28;20433;-51
2023/12/06 11:50:19;;;;;;;30.60;23.53;;;;;;;;;;4993026;28;20437;-52
2023/12/06 11:52:48;;;;;;;31.43;24.33;;;;;;;;;;4994200;28;20448;-52
2023/12/06 11:55:14;;;;;;;31.83;24.37;;;;;;;;;;4994483;28;20488;-52
2023/12/06 11:57:55;;;;;;;31.13;24.40;;;;;;;;;;4994222;28;20946;-51
2023/12/06 12:00:21;;;;;;;31.23;24.10;;;;;;;;;;4994372;28;20433;-52
2023/12/06 12:02:47;;;;;;;32.53;24.33;;;;;;;;;;4994515;28;20456;-51
2023/12/06 12:05:14;;;;;;;32.70;24.17;;;;;;;;;;4993919;28;21007;-51
2023/12/06 12:07:41;;;;;;;31.37;23.90;;;;;;;;;;4994411;28;20452;-51
2023/12/06 12:10:07;;;;;;;32.03;23.73;;;;;;;;;;4993999;28;20944;-52
2023/12/06 12:12:36;;;;;;;31.17;23.27;;;;;;;;;;4993984;28;20815;-51
2023/12/06 12:15:04;;;;;;;31.17;23.87;;;;;;;;;;4993914;28;20852;-51
2023/12/06 12:17:30;;;;;;;29.70;23.10;;;;;;;;;;4993909;28;20477;-51
2023/12/06 12:19:56;;;;;;;30.10;22.77;;;;;;;;;;4993993;28;20478;-51
2023/12/06 12:22:24;;;;;;;31.03;23.03;;;;;;;;;;4993860;28;20701;-51
2023/12/06 12:24:51;;;;;;;30.00;22.33;;;;;;;;;;4993861;28;20461;-52
2023/12/06 12:27:18;;;;;;;28.03;21.77;;;;;;;;;;4993370;28;20503;-51
2023/12/06 12:29:44;;;;;;;28.13;22.03;;;;;;;;;;4993522;28;20429;-51
2023/12/06 12:32:11;;;;;;;27.20;21.33;;;;;;;;;;4993398;28;20440;-51
2023/12/06 12:34:37;;;;;;;28.10;22.47;;;;;;;;;;4993184;28;20444;-51
2023/12/06 12:37:03;;;;;;;26.23;21.07;;;;;;;;;;4993500;28;20445;-51
2023/12/06 12:39:31;;;;;;;24.57;20.17;;;;;;;;;;4993504;28;20448;-51
2023/12/06 12:41:57;;;;;;;23.80;18.43;;;;;;;;;;4990817;28;20446;-52
2023/12/06 12:44:23;;;;;;;25.13;20.10;;;;;;;;;;4993793;28;20911;-52
2023/12/06 12:46:49;;;;;;;21.87;18.23;;;;;;;;;;4993990;28;20238;-51
2023/12/06 12:49:15;;;;;;;24.03;19.00;;;;;;;;;;4992175;28;20194;-51
2023/12/06 12:51:42;;;;;;;20.87;17.27;;;;;;;;;;4993775;28;20819;-51
2023/12/06 12:54:12;;;;;;;21.67;17.60;;;;;;;;;;4993555;28;20198;-51
2023/12/06 12:56:40;;;;;;;22.00;17.63;;;;;;;;;;4993593;28;20481;-51
2023/12/06 12:59:06;;;;;;;21.67;17.67;;;;;;;;;;4993348;28;20916;-52
2023/12/06 13:01:34;;;;;;;22.87;17.97;;;;;;;;;;4993436;28;20446;-51
2023/12/06 13:04:01;;;;;;;21.80;17.63;;;;;;;;;;4993421;28;20444;-52
2023/12/06 13:06:28;;;;;;;20.70;17.13;;;;;;;;;;4993296;28;20504;-51
2023/12/06 13:08:55;;;;;;;19.77;16.03;;;;;;;;;;4993413;28;20442;-52
2023/12/06 13:11:21;;;;;;;19.13;16.40;;;;;;;;;;4993204;28;20437;-51
2023/12/06 13:13:48;;;;;;;21.40;17.23;;;;;;;;;;4993358;28;20499;-51
2023/12/06 13:16:14;;;;;;;19.10;16.37;;;;;;;;;;4993008;28;20453;-51
2023/12/06 13:18:40;;;;;;;19.33;16.37;;;;;;;;;;4993256;28;20496;-51
2023/12/06 13:21:06;;;;;;;20.70;17.03;;;;;;;;;;4992746;28;20661;-51
2023/12/06 13:23:34;;;;;;;19.30;16.50;;;;;;;;;;4992814;28;21010;-52
2023/12/06 13:26:01;;;;;;;21.47;16.97;;;;;;;;;;4992563;28;20478;-52
2023/12/06 13:28:27;;;;;;;20.70;17.40;;;;;;;;;;4992937;28;20501;-51
2023/12/06 13:30:54;;;;;;;19.93;17.40;;;;;;;;;;4992815;28;20484;-52
2023/12/06 13:33:20;;;;;;;23.97;18.10;;;;;;;;;;4992572;28;20289;-51
2023/12/06 13:35:46;;;;;;;21.53;17.77;;;;;;;;;;4992861;28;20533;-52
2023/12/06 13:38:12;;;;;;;20.83;17.30;;;;;;;;;;4992772;28;20199;-51
2023/12/06 13:40:38;;;;;;;22.63;18.97;;;;;;;;;;4992542;28;20615;-52
2023/12/06 13:43:05;;;;;;;21.13;17.10;;;;;;;;;;4992367;28;20461;-51
2023/12/06 13:45:31;;;;;;;20.33;17.50;;;;;;;;;;4992173;28;20254;-51
2023/12/06 13:47:58;;;;;;;20.23;16.60;;;;;;;;;;4992466;28;20452;-52
2023/12/06 13:50:24;;;;;;;19.37;16.63;;;;;;;;;;4992430;28;20793;-51
2023/12/06 13:52:50;;;;;;;20.27;16.87;;;;;;;;;;4992010;28;20429;-51
2023/12/06 13:55:16;;;;;;;19.43;16.40;;;;;;;;;;4992148;28;20999;-52
2023/12/06 13:57:44;;;;;;;20.47;17.00;;;;;;;;;;4992582;28;20249;-51
2023/12/06 14:00:10;;;;;;;18.77;16.43;;;;;;;;;;4992234;28;20202;-51
2023/12/06 14:02:36;;;;;;;17.93;15.87;;;;;;;;;;4992007;28;20437;-51
2023/12/06 14:05:04;;;;;;;17.20;15.20;;;;;;;;;;4991995;28;20451;-52
2023/12/06 14:07:30;;;;;;;19.10;16.10;;;;;;;;;;4992159;28;20450;-51
2023/12/06 14:09:56;;;;;;;19.53;16.77;;;;;;;;;;4992154;28;20496;-51
2023/12/06 14:12:22;;;;;;;19.20;16.83;;;;;;;;;;4991106;28;20441;-51